Time;durP1;ratioP1;P1;durP2;ratioP2;P2;SDS_P1;SDS_P2;PMS_P1;PMS_P2;Temp;Humidity;BMP_temperature;BMP_pressure;BME280_temperature;BME280_humidity;BME280_pressure;Samples;Min_cycle;Max_cycle;Signal;HPM_P1;HPM_P2
2023/03/11 00:02:18;;;;;;;10.00;5.05;;;;;;;-4.47;59.39;98813.84;7349890;19;20070;-72
2023/03/11 00:04:43;;;;;;;13.43;6.03;;;;;;;-4.31;58.71;98816.91;7348601;19;20399;-71
2023/03/11 00:07:10;;;;;;;11.15;7.05;;;;;;;-4.42;59.00;98814.59;7347063;19;20007;-70
2023/03/11 00:09:34;;;;;;;13.90;5.90;;;;;;;-4.36;58.46;98810.09;7347684;19;20010;-70
2023/03/11 00:12:00;;;;;;;8.43;4.28;;;;;;;-4.43;58.93;98809.41;7347916;19;20014;-70
2023/03/11 00:14:25;;;;;;;10.52;5.85;;;;;;;-4.47;58.74;98800.81;7355258;19;20032;-76
2023/03/11 00:16:49;;;;;;;9.75;5.97;;;;;;;-4.57;59.02;98795.88;7359809;19;20018;-76
2023/03/11 00:19:14;;;;;;;10.38;7.57;;;;;;;-4.57;59.20;98794.16;7360969;19;20039;-68
2023/03/11 00:21:38;;;;;;;9.07;6.03;;;;;;;-4.55;58.85;98797.56;7368634;19;20220;-70
2023/03/11 00:24:03;;;;;;;10.25;5.45;;;;;;;-4.56;58.69;98785.44;7369475;19;20019;-68
2023/03/11 00:26:28;;;;;;;11.70;5.45;;;;;;;-4.56;58.73;98784.59;7365107;19;20010;-70
2023/03/11 00:28:54;;;;;;;8.32;5.55;;;;;;;-4.72;59.07;98789.31;7347720;19;20370;-71
2023/03/11 00:31:18;;;;;;;10.90;5.00;;;;;;;-4.68;59.25;98797.91;7349838;19;20387;-71
2023/03/11 00:33:43;;;;;;;11.77;5.95;;;;;;;-4.65;59.21;98797.81;7348320;19;20346;-70
2023/03/11 00:36:23;;;;;;;11.63;5.90;;;;;;;-4.63;59.24;98801.25;7349575;19;20062;-72
2023/03/11 00:38:47;;;;;;;12.73;6.22;;;;;;;-4.65;59.38;98801.28;7348086;19;20006;-71
2023/03/11 00:41:12;;;;;;;9.90;6.63;;;;;;;-4.70;59.40;98791.88;7346133;19;20022;-73
2023/03/11 00:43:37;;;;;;;11.48;5.80;;;;;;;-4.62;59.45;98787.34;7347054;19;20013;-72
2023/03/11 00:46:03;;;;;;;14.32;6.03;;;;;;;-4.53;59.28;98787.13;7351595;19;20010;-77
2023/03/11 00:48:28;;;;;;;9.98;4.50;;;;;;;-4.59;59.26;98788.13;7349199;19;20077;-80
2023/03/11 00:50:53;;;;;;;12.07;5.57;;;;;;;-4.60;59.12;98785.56;7351671;19;20022;-77
2023/03/11 00:53:17;;;;;;;9.77;5.80;;;;;;;-4.61;59.18;98789.91;7351166;19;20010;-76
2023/03/11 00:55:42;;;;;;;12.05;4.18;;;;;;;-4.58;59.35;98786.38;7351515;19;20037;-75
2023/03/11 00:58:10;;;;;;;11.02;5.60;;;;;;;-4.72;59.42;98788.44;7346821;19;20025;-75
2023/03/11 01:00:45;;;;;;;10.98;5.90;;;;;;;-4.77;59.77;98794.63;7348306;19;20011;-79
2023/03/11 01:03:09;;;;;;;12.82;5.78;;;;;;;-4.75;59.96;98797.19;7345809;19;20018;-74
2023/03/11 01:05:34;;;;;;;15.82;6.97;;;;;;;-4.74;59.82;98796.31;7346507;19;20365;-71
2023/03/11 01:08:01;;;;;;;12.43;5.75;;;;;;;-4.76;60.14;98793.75;7349236;19;20045;-75
2023/03/11 01:10:27;;;;;;;9.38;6.15;;;;;;;-4.71;60.04;98792.75;7343073;19;20015;-73
2023/03/11 01:12:52;;;;;;;11.27;5.53;;;;;;;-4.82;60.14;98793.00;7345888;19;20029;-71
2023/03/11 01:15:25;;;;;;;14.90;6.38;;;;;;;-4.80;60.50;98797.28;7344116;19;20026;-70
2023/03/11 01:17:50;;;;;;;15.40;6.78;;;;;;;-4.76;60.25;98793.75;7348930;19;20018;-74
2023/03/11 01:20:15;;;;;;;9.40;6.13;;;;;;;-4.81;60.58;98790.38;7347450;19;20015;-69
2023/03/11 01:22:40;;;;;;;10.93;5.85;;;;;;;-4.81;60.62;98792.97;7347515;19;20010;-75
2023/03/11 01:25:05;;;;;;;12.75;6.20;;;;;;;-4.79;60.71;98788.59;7344413;19;20022;-70
2023/03/11 01:27:29;;;;;;;15.88;6.38;;;;;;;-4.71;60.72;98782.34;7356094;19;20039;-69
2023/03/11 01:29:54;;;;;;;10.43;6.15;;;;;;;-4.71;60.98;98783.22;7346128;19;20014;-69
2023/03/11 01:32:19;;;;;;;10.50;5.18;;;;;;;-4.59;60.95;98782.91;7346545;19;20473;-68
2023/03/11 01:34:43;;;;;;;15.35;7.05;;;;;;;-4.58;60.81;98784.63;7343982;19;20014;-68
2023/03/11 01:37:08;;;;;;;12.00;6.20;;;;;;;-4.62;60.88;98785.59;7344056;19;20030;-69
2023/03/11 01:39:33;;;;;;;8.48;5.30;;;;;;;-4.42;60.73;98787.72;7341687;19;20031;-67
2023/03/11 01:41:57;;;;;;;12.13;6.32;;;;;;;-4.50;60.34;98795.69;7344223;19;20018;-68
2023/03/11 01:44:22;;;;;;;13.18;5.47;;;;;;;-4.49;59.98;98774.00;7342005;19;20015;-67
2023/03/11 01:46:53;;;;;;;11.07;6.47;;;;;;;-4.65;60.47;98783.09;7342992;19;20014;-68
2023/03/11 01:49:23;;;;;;;9.80;5.43;;;;;;;-4.60;60.27;98791.59;7341889;19;20385;-68
2023/03/11 01:51:50;;;;;;;10.95;5.30;;;;;;;-4.62;60.22;98789.94;7343121;19;20011;-69
2023/03/11 01:54:19;;;;;;;2.70;1.98;;;;;;;-4.60;60.39;98791.59;7343874;19;20033;-69
2023/03/11 01:56:45;;;;;;;10.00;4.32;;;;;;;-4.62;60.14;98779.53;7343928;19;20553;-68
2023/03/11 01:59:14;;;;;;;6.20;4.20;;;;;;;-4.69;60.36;98788.38;7343113;19;20017;-68
2023/03/11 02:01:55;;;;;;;8.55;4.55;;;;;;;-4.72;60.14;98775.44;7343580;19;20362;-68
2023/03/11 02:04:20;;;;;;;9.57;5.68;;;;;;;-4.86;60.50;98781.00;7341848;19;20014;-69
2023/03/11 02:06:46;;;;;;;10.93;5.55;;;;;;;-5.00;60.98;98773.50;7343060;19;20037;-69
2023/03/11 02:09:11;;;;;;;11.52;6.60;;;;;;;-5.02;61.16;98780.50;7344920;19;20042;-69
2023/03/11 02:11:36;;;;;;;8.25;4.93;;;;;;;-5.05;61.54;98785.75;7348943;19;20007;-69
2023/03/11 02:14:03;;;;;;;12.90;6.95;;;;;;;-4.81;61.36;98790.38;7346389;19;20033;-67
2023/03/11 02:16:28;;;;;;;6.20;3.67;;;;;;;-4.72;61.10;98781.50;7342346;19;20422;-68
2023/03/11 02:18:53;;;;;;;13.50;6.72;;;;;;;-4.78;60.83;98784.25;7341510;19;20458;-67
2023/03/11 02:21:33;;;;;;;11.15;6.50;;;;;;;-4.93;61.26;98790.66;7341125;19;20018;-68
2023/03/11 02:24:24;;;;;;;10.20;5.68;;;;;;;-5.06;61.92;98773.63;7341574;19;20334;-68
2023/03/11 02:26:52;;;;;;;10.48;5.70;;;;;;;-5.11;62.00;98778.09;7340663;19;20015;-68
2023/03/11 02:29:20;;;;;;;9.18;5.55;;;;;;;-5.08;62.41;98782.38;7341675;19;20383;-67
2023/03/11 02:31:47;;;;;;;5.35;3.47;;;;;;;-4.74;62.04;98780.72;7340960;19;20022;-66
2023/03/11 02:34:26;;;;;;;7.13;3.90;;;;;;;-4.67;61.59;98774.47;7341387;19;20019;-67
2023/03/11 02:36:51;;;;;;;9.00;6.13;;;;;;;-4.86;61.76;98775.81;7341223;19;20041;-65
2023/03/11 02:39:29;;;;;;;9.48;4.88;;;;;;;-4.84;62.06;98777.44;7341638;19;20020;-65
2023/03/11 02:41:54;;;;;;;6.50;4.22;;;;;;;-4.77;62.19;98796.38;7341398;19;20014;-68
2023/03/11 02:44:20;;;;;;;14.93;7.50;;;;;;;-5.07;62.59;98779.72;7341393;19;20362;-67
2023/03/11 02:46:45;;;;;;;5.00;2.28;;;;;;;-4.96;62.99;98769.06;7342698;19;20025;-70
2023/03/11 02:49:12;;;;;;;2.75;2.50;;;;;;;-4.77;62.81;98776.44;7340512;19;20081;-69
2023/03/11 02:51:37;;;;;;;11.90;6.10;;;;;;;-5.00;63.18;98772.66;7341440;19;20106;-71
2023/03/11 02:54:04;;;;;;;5.28;4.50;;;;;;;-5.03;63.58;98770.97;7340986;19;20094;-68
2023/03/11 02:56:30;;;;;;;7.97;4.60;;;;;;;-5.09;64.02;98770.28;7341779;19;20010;-71
2023/03/11 02:58:55;;;;;;;6.25;4.38;;;;;;;-5.06;64.17;98776.22;7339803;19;20039;-68
2023/03/11 03:01:19;;;;;;;3.00;2.25;;;;;;;-5.04;64.45;98766.66;7341399;19;20026;-68
2023/03/11 03:03:46;;;;;;;4.85;3.35;;;;;;;-5.13;64.52;98770.34;7348654;19;20007;-68
2023/03/11 03:06:11;;;;;;;9.38;6.03;;;;;;;-5.34;65.05;98772.56;7349389;19;20014;-68
2023/03/11 03:08:36;;;;;;;8.13;4.80;;;;;;;-5.35;65.30;98784.69;7350377;19;20018;-67
2023/03/11 03:11:02;;;;;;;5.38;3.72;;;;;;;-5.27;65.52;98785.38;7348011;19;20018;-65
2023/03/11 03:13:26;;;;;;;11.75;6.18;;;;;;;-5.33;65.75;98779.47;7349344;19;20019;-67
2023/03/11 03:15:53;;;;;;;15.00;6.53;;;;;;;-5.31;66.02;98782.88;7351082;19;20011;-66
2023/03/11 03:18:18;;;;;;;4.50;2.78;;;;;;;-5.15;66.20;98779.06;7356900;19;20045;-66
2023/03/11 03:20:43;;;;;;;9.45;6.07;;;;;;;-5.15;66.10;98784.25;7353171;19;20069;-68
2023/03/11 03:23:07;;;;;;;8.55;4.10;;;;;;;-5.17;66.25;98792.06;7351824;19;20018;-73
2023/03/11 03:25:32;;;;;;;12.82;5.95;;;;;;;-5.40;66.71;98783.91;7358238;19;20046;-77
2023/03/11 03:28:01;;;;;;;10.65;6.00;;;;;;;-5.50;67.14;98777.22;7368963;19;20014;-79
2023/03/11 03:30:28;;;;;;;10.75;4.70;;;;;;;-5.11;67.14;98791.09;7361223;19;20026;-76
2023/03/11 03:32:53;;;;;;;10.15;5.82;;;;;;;-5.39;67.35;98774.38;7348087;19;20025;-78
2023/03/11 03:35:18;;;;;;;9.65;5.10;;;;;;;-5.32;67.37;98791.56;7347305;19;20018;-73
2023/03/11 03:38:00;;;;;;;12.18;6.60;;;;;;;-5.40;67.56;98783.06;7348831;19;20014;-73
2023/03/11 03:40:25;;;;;;;11.95;6.05;;;;;;;-5.44;67.89;98784.03;7348309;19;20025;-71
2023/03/11 03:42:50;;;;;;;5.57;3.47;;;;;;;-5.48;68.14;98783.22;7347161;19;20058;-70
2023/03/11 03:45:15;;;;;;;10.23;5.88;;;;;;;-5.70;68.72;98775.03;7347017;19;20010;-71
2023/03/11 03:47:40;;;;;;;14.02;6.93;;;;;;;-5.67;68.92;98776.72;7348861;19;20021;-73
2023/03/11 03:50:07;;;;;;;5.78;3.92;;;;;;;-5.53;69.09;98772.94;7351573;19;20006;-75
2023/03/11 03:52:34;;;;;;;9.68;6.82;;;;;;;-5.59;69.07;98774.81;7350377;19;20020;-75
2023/03/11 03:54:59;;;;;;;12.00;6.82;;;;;;;-5.72;69.27;98766.41;7349135;19;20034;-77
2023/03/11 03:57:25;;;;;;;12.18;6.85;;;;;;;-5.72;69.43;98766.41;7350899;19;20086;-72
2023/03/11 03:59:50;;;;;;;4.70;3.33;;;;;;;-5.59;69.68;98777.41;7348792;19;20018;-71
2023/03/11 04:02:14;;;;;;;14.98;6.00;;;;;;;-5.65;69.55;98773.22;7348271;19;20019;-71
2023/03/11 04:04:40;;;;;;;5.93;4.65;;;;;;;-5.63;69.84;98761.03;7348419;19;20470;-73
2023/03/11 04:07:08;;;;;;;13.95;7.38;;;;;;;-5.78;69.98;98766.56;7348174;19;20015;-73
2023/03/11 04:09:33;;;;;;;14.77;8.27;;;;;;;-5.77;70.21;98764.81;7355189;19;20018;-76
2023/03/11 04:11:59;;;;;;;12.77;7.65;;;;;;;-5.70;70.39;98763.78;7350274;19;20018;-74
2023/03/11 04:14:24;;;;;;;15.50;8.63;;;;;;;-5.77;70.26;98755.28;7346026;19;20031;-74
2023/03/11 04:16:53;;;;;;;9.55;5.35;;;;;;;-5.75;70.33;98755.22;7346647;19;20042;-71
2023/03/11 04:19:18;;;;;;;16.60;7.35;;;;;;;-5.83;70.70;98750.22;7347719;19;20014;-72
2023/03/11 04:21:43;;;;;;;10.02;6.63;;;;;;;-5.81;70.77;98745.00;7344592;19;20311;-73
2023/03/11 04:24:09;;;;;;;21.58;7.57;;;;;;;-5.88;70.97;98750.31;7346428;19;20043;-73
2023/03/11 04:26:36;;;;;;;13.63;6.75;;;;;;;-5.86;71.08;98747.66;7344602;19;20019;-72
2023/03/11 04:29:01;;;;;;;8.18;5.07;;;;;;;-5.82;71.26;98741.53;7346043;19;20011;-72
2023/03/11 04:31:29;;;;;;;21.45;10.20;;;;;;;-5.92;71.27;98732.28;7345710;19;20023;-72
2023/03/11 04:33:56;;;;;;;11.25;6.35;;;;;;;-5.83;71.47;98726.00;7345176;19;20055;-73
2023/03/11 04:36:21;;;;;;;21.85;6.90;;;;;;;-5.83;71.52;98732.03;7346380;19;20057;-72
2023/03/11 04:38:47;;;;;;;15.25;8.80;;;;;;;-5.87;71.49;98720.03;7348331;19;20336;-74
2023/03/11 04:41:12;;;;;;;22.17;9.23;;;;;;;-5.78;71.54;98725.03;7344819;19;20070;-74
2023/03/11 04:43:38;;;;;;;19.02;9.85;;;;;;;-5.93;71.91;98730.56;7345606;19;20010;-73
2023/03/11 04:46:03;;;;;;;20.73;10.43;;;;;;;-6.08;72.01;98723.91;7344197;19;20018;-73
2023/03/11 04:48:28;;;;;;;11.52;6.03;;;;;;;-5.83;72.22;98726.84;7345818;19;20053;-74
2023/03/11 04:50:54;;;;;;;16.27;7.55;;;;;;;-5.90;72.26;98710.59;7344475;19;20018;-72
2023/03/11 04:53:19;;;;;;;14.27;7.65;;;;;;;-5.96;72.21;98712.44;7345679;19;20022;-73
2023/03/11 04:55:46;;;;;;;13.73;7.25;;;;;;;-5.72;72.36;98718.84;7348056;19;20021;-71
2023/03/11 04:58:11;;;;;;;16.80;10.07;;;;;;;-5.95;72.64;98717.59;7349323;19;20030;-73
2023/03/11 05:00:37;;;;;;;17.75;9.40;;;;;;;-5.80;72.39;98711.22;7343971;19;20037;-73
2023/03/11 05:03:06;;;;;;;12.30;7.15;;;;;;;-5.77;72.38;98726.75;7343917;19;20022;-73
2023/03/11 05:05:31;;;;;;;31.45;8.98;;;;;;;-5.71;72.49;98715.34;7344620;19;20018;-75
2023/03/11 05:07:55;;;;;;;22.30;9.70;;;;;;;-5.86;72.47;98717.38;7348396;19;20026;-76
2023/03/11 05:10:21;;;;;;;18.70;8.50;;;;;;;-5.92;72.66;98706.31;7346295;19;20022;-77
2023/03/11 05:12:51;;;;;;;10.27;6.13;;;;;;;-5.79;72.95;98707.75;7347127;19;20065;-76
2023/03/11 05:15:17;;;;;;;11.07;7.20;;;;;;;-5.74;73.01;98705.03;7344128;19;20074;-74
2023/03/11 05:17:42;;;;;;;15.15;6.97;;;;;;;-5.77;72.93;98700.78;7346237;19;20051;-76
2023/03/11 05:20:08;;;;;;;10.13;5.05;;;;;;;-5.79;72.96;98707.75;7345184;19;20033;-72
2023/03/11 05:22:33;;;;;;;18.65;10.73;;;;;;;-5.78;73.14;98703.41;7343675;19;20015;-73
2023/03/11 05:24:58;;;;;;;17.85;8.55;;;;;;;-5.82;73.34;98705.22;7341114;19;20043;-72
2023/03/11 05:27:23;;;;;;;20.30;5.72;;;;;;;-5.73;73.30;98693.75;7344193;19;20488;-73
2023/03/11 05:29:52;;;;;;;8.20;5.13;;;;;;;-5.76;73.42;98706.84;7343863;19;20018;-71
2023/03/11 05:32:18;;;;;;;8.13;5.38;;;;;;;-5.81;73.60;98698.28;7344337;19;20024;-74
2023/03/11 05:34:45;;;;;;;15.80;8.93;;;;;;;-5.78;73.76;98706.00;7342837;19;20351;-72
2023/03/11 05:37:10;;;;;;;7.63;4.68;;;;;;;-5.68;73.69;98710.97;7346435;19;20019;-75
2023/03/11 05:39:36;;;;;;;12.35;6.00;;;;;;;-5.55;73.33;98701.19;7346673;19;20007;-74
2023/03/11 05:42:01;;;;;;;18.73;9.63;;;;;;;-5.73;73.53;98712.78;7348141;19;20017;-73
2023/03/11 05:44:26;;;;;;;13.77;7.43;;;;;;;-5.61;73.87;98715.13;7344182;19;20011;-72
2023/03/11 05:46:53;;;;;;;11.95;6.75;;;;;;;-5.65;73.94;98699.66;7344259;19;20039;-73
2023/03/11 05:49:20;;;;;;;14.63;7.90;;;;;;;-5.49;73.63;98707.06;7342476;19;20038;-74
2023/03/11 05:51:46;;;;;;;15.52;7.88;;;;;;;-5.74;73.89;98700.69;7344334;19;20014;-74
2023/03/11 05:54:13;;;;;;;15.80;8.70;;;;;;;-5.67;73.87;98694.50;7342300;19;20025;-74
2023/03/11 05:56:42;;;;;;;16.27;9.45;;;;;;;-5.65;73.96;98697.94;7343313;19;20014;-73
2023/03/11 05:59:07;;;;;;;19.35;7.85;;;;;;;-5.58;74.23;98693.44;7343973;19;20014;-74
2023/03/11 06:01:34;;;;;;;15.57;8.30;;;;;;;-5.65;74.28;98687.53;7342985;19;20019;-74
2023/03/11 06:03:59;;;;;;;11.88;6.80;;;;;;;-5.30;74.14;98702.31;7341837;19;20082;-74
2023/03/11 06:06:23;;;;;;;15.20;8.48;;;;;;;-5.45;73.86;98714.81;7342788;19;20672;-73
2023/03/11 06:08:49;;;;;;;13.35;6.70;;;;;;;-5.44;73.51;98694.00;7341578;19;20413;-73
2023/03/11 06:11:16;;;;;;;11.95;4.47;;;;;;;-5.50;73.78;98709.69;7343654;19;20039;-72
2023/03/11 06:13:41;;;;;;;12.85;6.78;;;;;;;-5.47;73.92;98698.41;7340614;19;20018;-73
2023/03/11 06:16:08;;;;;;;10.13;5.13;;;;;;;-5.38;74.11;98693.00;7345223;19;20489;-75
2023/03/11 06:18:33;;;;;;;11.93;7.20;;;;;;;-5.38;73.94;98709.44;7351698;19;20029;-74
2023/03/11 06:20:58;;;;;;;12.05;6.90;;;;;;;-5.35;74.09;98698.13;7343720;19;20041;-74
2023/03/11 06:23:24;;;;;;;15.63;7.95;;;;;;;-5.32;74.12;98696.31;7342114;19;20082;-78
2023/03/11 06:25:56;;;;;;;19.73;9.73;;;;;;;-5.28;74.14;98689.28;7344710;19;20018;-73
2023/03/11 06:28:22;;;;;;;11.75;5.35;;;;;;;-5.24;74.14;98681.41;7342835;19;20014;-74
2023/03/11 06:30:47;;;;;;;11.10;5.72;;;;;;;-5.05;74.05;98681.81;7344156;19;20020;-74
2023/03/11 06:33:13;;;;;;;15.85;8.00;;;;;;;-5.18;73.86;98682.97;7341100;19;20399;-74
2023/03/11 06:35:38;;;;;;;13.82;7.80;;;;;;;-5.26;73.83;98667.59;7345367;19;20007;-73
2023/03/11 06:38:03;;;;;;;5.22;3.67;;;;;;;-5.20;74.17;98689.97;7350916;19;20014;-74
2023/03/11 06:40:28;;;;;;;9.95;6.38;;;;;;;-5.03;73.99;98673.97;7351714;19;20017;-73
2023/03/11 06:42:52;;;;;;;13.93;7.38;;;;;;;-5.23;74.12;98671.88;7347661;19;20022;-74
2023/03/11 06:45:20;;;;;;;16.73;7.05;;;;;;;-4.80;73.60;98664.72;7353281;19;20050;-73
2023/03/11 06:47:45;;;;;;;13.32;7.18;;;;;;;-4.90;72.87;98673.63;7353356;19;20006;-74
2023/03/11 06:50:10;;;;;;;15.90;7.18;;;;;;;-4.91;72.95;98674.53;7355024;19;20028;-75
2023/03/11 06:52:35;;;;;;;9.07;5.68;;;;;;;-5.03;72.92;98677.44;7354368;19;20476;-75
2023/03/11 06:55:00;;;;;;;8.00;4.88;;;;;;;-5.11;73.23;98681.97;7356547;19;20683;-75
2023/03/11 06:57:26;;;;;;;13.95;7.57;;;;;;;-5.12;73.51;98669.84;7352930;19;20019;-74
2023/03/11 06:59:52;;;;;;;10.82;5.93;;;;;;;-5.05;73.38;98678.34;7351603;19;20082;-74
2023/03/11 07:02:17;;;;;;;9.55;5.57;;;;;;;-4.89;73.35;98677.09;7348013;19;20469;-74
2023/03/11 07:04:42;;;;;;;8.10;4.93;;;;;;;-5.08;73.50;98661.09;7349413;19;20022;-74
2023/03/11 07:07:07;;;;;;;9.13;4.53;;;;;;;-4.98;73.40;98662.59;7349779;19;20525;-74
2023/03/11 07:09:32;;;;;;;8.23;4.13;;;;;;;-5.17;73.79;98646.56;7349386;19;20006;-74
2023/03/11 07:11:57;;;;;;;12.55;5.63;;;;;;;-5.09;74.08;98662.00;7348387;19;20029;-74
2023/03/11 07:14:27;;;;;;;11.38;6.88;;;;;;;-5.01;74.11;98649.66;7347656;19;20015;-74
2023/03/11 07:16:53;;;;;;;6.10;4.75;;;;;;;-4.94;74.47;98648.59;7349312;19;20475;-74
2023/03/11 07:19:29;;;;;;;10.45;5.35;;;;;;;-4.88;74.42;98643.25;7349172;19;20105;-75
2023/03/11 07:21:54;;;;;;;10.15;5.22;;;;;;;-4.81;74.38;98649.16;7346112;19;20011;-74
2023/03/11 07:24:19;;;;;;;10.00;5.22;;;;;;;-4.74;74.44;98650.72;7349000;19;20354;-75
2023/03/11 07:26:43;;;;;;;8.23;5.57;;;;;;;-4.56;74.45;98638.97;7347753;19;20026;-74
2023/03/11 07:29:09;;;;;;;4.35;2.53;;;;;;;-4.62;74.17;98633.91;7349018;19;20018;-72
2023/03/11 07:31:34;;;;;;;10.13;5.85;;;;;;;-4.48;74.05;98648.25;7348262;19;20022;-74
2023/03/11 07:34:01;;;;;;;8.15;5.03;;;;;;;-4.61;73.69;98627.81;7346634;19;20014;-76
2023/03/11 07:36:27;;;;;;;13.32;7.38;;;;;;;-4.63;73.54;98614.03;7349207;19;20018;-74
2023/03/11 07:38:58;;;;;;;7.72;5.47;;;;;;;-4.40;73.97;98619.41;7349071;19;20015;-74
2023/03/11 07:41:23;;;;;;;9.27;5.45;;;;;;;-4.52;73.51;98611.97;7348953;19;20049;-74
2023/03/11 07:43:47;;;;;;;11.40;6.65;;;;;;;-4.49;73.07;98604.94;7350059;19;20014;-72
2023/03/11 07:46:17;;;;;;;10.82;6.13;;;;;;;-4.40;72.93;98601.22;7346728;19;20358;-74
2023/03/11 07:48:41;;;;;;;7.07;3.30;;;;;;;-4.37;72.76;98590.72;7346398;19;20011;-74
2023/03/11 07:51:09;;;;;;;2.58;2.35;;;;;;;-4.38;72.82;98591.63;7346684;19;20028;-74
2023/03/11 07:53:34;;;;;;;6.68;4.57;;;;;;;-4.54;72.92;98592.97;7348384;19;20018;-74
2023/03/11 07:56:00;;;;;;;7.40;4.35;;;;;;;-4.37;72.77;98582.91;7346232;19;20018;-72
2023/03/11 07:58:25;;;;;;;10.45;6.10;;;;;;;-4.34;72.78;98569.84;7347618;19;20010;-73
2023/03/11 08:00:50;;;;;;;7.60;4.03;;;;;;;-4.50;72.98;98592.81;7348363;19;20018;-74
2023/03/11 08:03:15;;;;;;;8.52;5.05;;;;;;;-4.59;73.04;98576.63;7346001;19;20102;-74
2023/03/11 08:05:39;;;;;;;8.18;4.65;;;;;;;-4.51;73.25;98566.84;7347346;19;20028;-74
2023/03/11 08:08:04;;;;;;;9.50;4.70;;;;;;;-4.46;73.11;98578.00;7347272;19;20191;-73
2023/03/11 08:10:29;;;;;;;7.22;5.13;;;;;;;-4.38;73.27;98565.59;7349206;19;20029;-74
2023/03/11 08:12:54;;;;;;;10.95;5.65;;;;;;;-4.32;73.17;98595.81;7353151;19;20015;-72
2023/03/11 08:15:18;;;;;;;10.90;5.22;;;;;;;-4.61;73.18;98548.06;7345949;19;20460;-74
2023/03/11 08:17:43;;;;;;;6.35;4.55;;;;;;;-4.58;73.72;98547.13;7349468;19;20014;-74
2023/03/11 08:20:09;;;;;;;7.10;4.88;;;;;;;-4.50;73.86;98550.34;7349145;19;20002;-74
2023/03/11 08:22:34;;;;;;;5.88;3.13;;;;;;;-4.63;74.13;98536.88;7349095;19;20025;-75
2023/03/11 08:24:59;;;;;;;9.23;5.18;;;;;;;-4.49;74.19;98537.31;7348904;19;20010;-74
2023/03/11 08:27:23;;;;;;;7.07;4.47;;;;;;;-4.56;74.11;98545.34;7351878;19;20025;-73
2023/03/11 08:29:48;;;;;;;9.50;4.70;;;;;;;-4.44;73.95;98547.59;7348425;19;20024;-73
2023/03/11 08:32:13;;;;;;;9.10;5.63;;;;;;;-4.30;73.72;98542.84;7350113;19;20019;-73
2023/03/11 08:34:38;;;;;;;13.90;4.68;;;;;;;-4.28;73.25;98522.81;7350971;19;20007;-73
2023/03/11 08:37:02;;;;;;;12.60;6.18;;;;;;;-4.43;73.38;98531.09;7349818;19;20014;-74
2023/03/11 08:39:27;;;;;;;21.88;8.55;;;;;;;-4.25;73.45;98534.88;7350705;19;20053;-72
2023/03/11 08:41:52;;;;;;;8.85;3.92;;;;;;;-4.26;73.28;98534.03;7350418;19;20023;-76
2023/03/11 08:44:17;;;;;;;7.57;4.00;;;;;;;-4.39;73.59;98553.50;7346117;19;20018;-74
2023/03/11 08:46:41;;;;;;;12.05;6.90;;;;;;;-4.04;73.53;98555.06;7346776;19;20469;-72
2023/03/11 08:49:06;;;;;;;7.50;3.35;;;;;;;-4.14;72.79;98536.25;7345049;19;20015;-72
2023/03/11 08:51:34;;;;;;;7.80;5.30;;;;;;;-4.29;72.86;98539.34;7349363;19;20026;-72
2023/03/11 08:53:59;;;;;;;11.13;5.80;;;;;;;-4.22;72.99;98553.88;7348310;19;20015;-73
2023/03/11 08:56:24;;;;;;;7.53;5.10;;;;;;;-4.26;73.06;98522.78;7348413;19;20031;-72
2023/03/11 08:58:49;;;;;;;8.63;5.50;;;;;;;-4.36;73.29;98521.34;7349924;19;20018;-72
2023/03/11 09:01:14;;;;;;;10.95;6.93;;;;;;;-4.42;73.41;98520.66;7349382;19;20323;-71
2023/03/11 09:03:39;;;;;;;12.60;7.53;;;;;;;-4.58;73.94;98526.31;7348103;19;20007;-71
2023/03/11 09:06:07;;;;;;;10.18;6.25;;;;;;;-4.33;74.36;98516.91;7348486;19;20461;-72
2023/03/11 09:08:32;;;;;;;9.07;5.03;;;;;;;-4.44;74.21;98508.56;7346867;19;20078;-70
2023/03/11 09:10:57;;;;;;;5.57;3.45;;;;;;;-4.46;74.64;98507.75;7346817;19;20018;-72
2023/03/11 09:13:22;;;;;;;10.00;5.32;;;;;;;-4.56;74.92;98509.78;7348287;19;20084;-71
2023/03/11 09:15:48;;;;;;;9.70;4.60;;;;;;;-4.51;74.97;98507.03;7350908;19;20010;-73
2023/03/11 09:18:14;;;;;;;10.30;6.03;;;;;;;-4.62;75.56;98514.28;7351929;19;20020;-72
2023/03/11 09:20:40;;;;;;;10.38;6.55;;;;;;;-4.64;75.76;98506.56;7350386;19;20284;-71
2023/03/11 09:23:10;;;;;;;14.15;6.13;;;;;;;-4.60;76.14;98507.31;7347158;19;20380;-72
2023/03/11 09:25:35;;;;;;;9.07;5.30;;;;;;;-4.50;76.20;98514.78;7350379;19;20086;-72
2023/03/11 09:28:00;;;;;;;9.88;6.10;;;;;;;-4.40;76.12;98500.63;7350235;19;20115;-70
2023/03/11 09:30:24;;;;;;;9.25;5.13;;;;;;;-4.25;75.84;98521.88;7347906;19;20023;-71
2023/03/11 09:32:49;;;;;;;6.25;3.58;;;;;;;-4.22;75.97;98490.56;7349181;19;20027;-72
2023/03/11 09:35:14;;;;;;;10.15;6.88;;;;;;;-4.27;75.76;98493.28;7346542;19;20022;-72
2023/03/11 09:37:39;;;;;;;7.85;4.63;;;;;;;-4.29;75.85;98492.53;7349856;19;20468;-70
2023/03/11 09:40:04;;;;;;;9.98;6.07;;;;;;;-4.08;75.79;98491.00;7352148;19;20485;-71
2023/03/11 09:42:44;;;;;;;8.43;5.25;;;;;;;-4.18;75.46;98492.19;7358275;19;20021;-71
2023/03/11 09:45:26;;;;;;;13.05;7.22;;;;;;;-4.35;75.28;98489.22;7354653;19;20019;-71
2023/03/11 09:48:24;;;;;;;13.32;7.18;;;;;;;-4.38;75.73;98488.41;7354171;19;20019;-74
2023/03/11 09:51:02;;;;;;;7.93;5.25;;;;;;;-4.14;75.66;98466.00;7351605;19;20014;-73
2023/03/11 09:53:44;;;;;;;8.70;5.78;;;;;;;-4.10;75.33;98461.56;7348915;19;20089;-72
2023/03/11 09:56:12;;;;;;;8.77;5.25;;;;;;;-4.29;75.29;98434.44;7346914;19;20021;-71
2023/03/11 09:58:52;;;;;;;9.07;6.15;;;;;;;-4.10;75.20;98445.94;7348755;19;20010;-72
2023/03/11 10:01:37;;;;;;;11.27;6.78;;;;;;;-4.12;74.93;98438.19;7345206;19;20028;-72
2023/03/11 10:04:41;;;;;;;8.82;5.00;;;;;;;-4.07;75.37;98430.25;7345253;19;20054;-74
2023/03/11 10:07:14;;;;;;;9.77;5.95;;;;;;;-3.92;74.57;98421.06;7343115;19;20006;-70
2023/03/11 10:09:55;;;;;;;8.10;5.30;;;;;;;-4.07;74.57;98431.09;7348824;19;20022;-72
2023/03/11 10:12:35;;;;;;;6.30;3.75;;;;;;;-3.80;74.46;98425.88;7345385;19;20015;-72
2023/03/11 10:15:17;;;;;;;7.68;4.90;;;;;;;-3.72;73.49;98429.06;7345543;19;20038;-72
2023/03/11 10:17:52;;;;;;;8.30;4.60;;;;;;;-3.76;73.16;98399.69;7344304;19;20498;-74
2023/03/11 10:20:32;;;;;;;4.88;3.00;;;;;;;-3.96;73.08;98394.31;7342254;19;20362;-71
2023/03/11 10:23:24;;;;;;;9.93;5.03;;;;;;;-4.08;73.42;98381.69;7341901;19;20029;-72
2023/03/11 10:26:22;;;;;;;8.38;4.35;;;;;;;-4.06;73.88;98390.28;7347483;19;20025;-72
2023/03/11 10:29:01;;;;;;;7.22;4.45;;;;;;;-3.92;73.96;98387.22;7350048;19;20015;-72
2023/03/11 10:31:33;;;;;;;7.22;3.90;;;;;;;-3.89;73.29;98374.13;7345497;19;20026;-70
2023/03/11 10:34:03;;;;;;;9.15;3.78;;;;;;;-3.79;73.28;98367.69;7345681;19;20044;-72
2023/03/11 10:36:36;;;;;;;6.18;3.92;;;;;;;-3.87;72.80;98382.72;7343254;19;20010;-72
2023/03/11 10:39:03;;;;;;;7.53;4.75;;;;;;;-4.00;73.03;98358.00;7347723;19;20043;-73
2023/03/11 10:41:30;;;;;;;5.90;4.72;;;;;;;-4.07;73.48;98353.03;7343679;19;20014;-73
2023/03/11 10:44:08;;;;;;;8.55;3.53;;;;;;;-3.84;73.50;98362.66;7346752;19;20018;-70
2023/03/11 10:46:33;;;;;;;3.47;2.30;;;;;;;-3.90;73.28;98355.03;7344224;19;20457;-72
2023/03/11 10:48:58;;;;;;;6.43;4.60;;;;;;;-3.81;73.12;98344.28;7343570;19;20469;-73
2023/03/11 10:51:26;;;;;;;6.82;3.72;;;;;;;-3.63;72.39;98342.81;7341445;19;20334;-72
2023/03/11 10:53:56;;;;;;;11.88;6.15;;;;;;;-3.66;72.35;98337.72;7345051;19;20027;-73
2023/03/11 10:56:33;;;;;;;7.85;5.30;;;;;;;-3.63;72.18;98355.84;7341053;19;20014;-76
2023/03/11 10:58:59;;;;;;;10.48;5.95;;;;;;;-3.88;72.10;98327.19;7347821;19;20031;-82
2023/03/11 11:01:24;;;;;;;6.30;3.83;;;;;;;-3.91;72.53;98339.47;7348969;19;20036;-82
2023/03/11 11:03:54;;;;;;;5.88;4.35;;;;;;;-3.82;72.33;98315.72;7348796;19;20022;-81
2023/03/11 11:06:28;;;;;;;11.45;5.47;;;;;;;-3.96;72.79;98312.75;7346484;19;20019;-75
2023/03/11 11:09:05;;;;;;;9.40;6.20;;;;;;;-3.92;72.97;98303.91;7342934;19;20021;-75
2023/03/11 11:11:30;;;;;;;8.32;4.35;;;;;;;-3.63;72.26;98303.75;7345211;19;20051;-74
2023/03/11 11:13:57;;;;;;;10.75;6.20;;;;;;;-3.74;72.44;98303.28;7343657;19;20018;-71
2023/03/11 11:16:22;;;;;;;3.67;2.40;;;;;;;-3.75;72.59;98299.00;7341668;19;20338;-72
2023/03/11 11:18:50;;;;;;;10.23;5.78;;;;;;;-3.76;72.91;98298.13;7343752;19;20477;-72
2023/03/11 11:21:27;;;;;;;8.73;4.53;;;;;;;-3.82;73.30;98289.69;7344721;19;20011;-72
2023/03/11 11:24:05;;;;;;;8.05;4.80;;;;;;;-3.62;73.04;98296.78;7353844;19;20031;-72
2023/03/11 11:26:30;;;;;;;9.68;4.85;;;;;;;-3.61;72.99;98278.47;7358341;19;20018;-77
2023/03/11 11:29:10;;;;;;;11.82;5.55;;;;;;;-3.57;73.10;98280.09;7353516;19;20025;-78
2023/03/11 11:31:45;;;;;;;7.50;5.03;;;;;;;-3.64;72.94;98275.16;7352932;19;20457;-75